sensor_id;sensor_type;location;lat;lon;timestamp;pressure;altitude;pressure_sealevel;temperature;humidity
52591;BME280;38483;42.620;25.394;2023-10-13T00:00:34;97493.94;;;11.65;73.34
52591;BME280;38483;42.620;25.394;2023-10-13T00:03:04;97491.69;;;11.57;73.44
52591;BME280;38483;42.620;25.394;2023-10-13T00:05:33;97492.94;;;11.48;73.89
52591;BME280;38483;42.620;25.394;2023-10-13T00:08:02;97484.50;;;11.43;74.27
52591;BME280;38483;42.620;25.394;2023-10-13T00:10:30;97479.78;;;11.33;74.69
52591;BME280;38483;42.620;25.394;2023-10-13T00:12:57;97398.91;;;10.83;75.09
52591;BME280;38483;42.620;25.394;2023-10-13T00:15:44;97485.03;;;11.52;74.94
52591;BME280;38483;42.620;25.394;2023-10-13T00:18:25;97485.16;;;11.48;75.02
52591;BME280;38483;42.620;25.394;2023-10-13T00:21:01;97478.31;;;11.46;75.11
52591;BME280;38483;42.620;25.394;2023-10-13T00:23:36;97475.44;;;11.54;74.65
52591;BME280;38483;42.620;25.394;2023-10-13T00:26:03;97484.09;;;11.53;74.94
52591;BME280;38483;42.620;25.394;2023-10-13T00:28:30;97483.72;;;11.62;74.09
52591;BME280;38483;42.620;25.394;2023-10-13T00:31:10;97479.78;;;11.53;74.85
52591;BME280;38483;42.620;25.394;2023-10-13T00:33:38;97475.53;;;11.51;75.20
52591;BME280;38483;42.620;25.394;2023-10-13T00:36:08;97478.38;;;11.66;74.58
52591;BME280;38483;42.620;25.394;2023-10-13T00:38:43;97464.31;;;11.50;73.99
52591;BME280;38483;42.620;25.394;2023-10-13T00:41:15;97471.31;;;11.70;73.88
52591;BME280;38483;42.620;25.394;2023-10-13T00:43:45;97475.38;;;11.75;72.64
52591;BME280;38483;42.620;25.394;2023-10-13T00:46:32;97475.19;;;11.80;72.44
52591;BME280;38483;42.620;25.394;2023-10-13T00:49:03;97462.31;;;11.77;72.16
52591;BME280;38483;42.620;25.394;2023-10-13T00:51:33;97460.22;;;11.66;71.71
52591;BME280;38483;42.620;25.394;2023-10-13T00:54:08;97470.75;;;11.41;72.90
52591;BME280;38483;42.620;25.394;2023-10-13T00:56:40;97470.75;;;11.41;72.91
52591;BME280;38483;42.620;25.394;2023-10-13T00:59:24;97458.38;;;11.28;73.25
52591;BME280;38483;42.620;25.394;2023-10-13T01:01:52;97453.88;;;11.31;72.85
52591;BME280;38483;42.620;25.394;2023-10-13T01:04:23;97456.22;;;11.17;73.10
52591;BME280;38483;42.620;25.394;2023-10-13T01:06:54;97455.31;;;11.18;73.21
52591;BME280;38483;42.620;25.394;2023-10-13T01:09:21;97459.84;;;11.13;73.28
52591;BME280;38483;42.620;25.394;2023-10-13T01:11:51;97452.06;;;11.13;73.38
52591;BME280;38483;42.620;25.394;2023-10-13T01:14:20;97455.69;;;11.09;73.20
52591;BME280;38483;42.620;25.394;2023-10-13T01:16:48;97429.50;;;10.95;72.82
52591;BME280;38483;42.620;25.394;2023-10-13T01:19:19;97457.41;;;11.30;72.09
52591;BME280;38483;42.620;25.394;2023-10-13T01:21:52;97444.63;;;11.26;72.44
52591;BME280;38483;42.620;25.394;2023-10-13T01:24:24;97449.47;;;11.33;71.86
52591;BME280;38483;42.620;25.394;2023-10-13T01:26:53;97451.44;;;11.28;71.53
52591;BME280;38483;42.620;25.394;2023-10-13T01:29:20;97438.59;;;11.25;71.81
52591;BME280;38483;42.620;25.394;2023-10-13T01:31:53;97450.03;;;11.41;71.50
52591;BME280;38483;42.620;25.394;2023-10-13T01:34:20;97369.25;;;10.90;71.29
52591;BME280;38483;42.620;25.394;2023-10-13T01:36:52;97447.13;;;11.27;71.76
52591;BME280;38483;42.620;25.394;2023-10-13T01:39:23;97439.31;;;11.29;71.92
52591;BME280;38483;42.620;25.394;2023-10-13T01:41:56;97446.16;;;11.10;72.69
52591;BME280;38483;42.620;25.394;2023-10-13T01:44:24;97449.72;;;11.07;73.43
52591;BME280;38483;42.620;25.394;2023-10-13T01:46:57;97441.84;;;11.30;72.13
52591;BME280;38483;42.620;25.394;2023-10-13T01:49:34;97448.06;;;11.26;71.94
52591;BME280;38483;42.620;25.394;2023-10-13T01:52:14;97447.66;;;11.15;71.93
52591;BME280;38483;42.620;25.394;2023-10-13T01:54:48;97444.22;;;10.73;73.43
52591;BME280;38483;42.620;25.394;2023-10-13T01:57:18;97439.66;;;10.58;74.23
52591;BME280;38483;42.620;25.394;2023-10-13T01:59:49;97439.59;;;10.59;74.36
52591;BME280;38483;42.620;25.394;2023-10-13T02:02:17;97441.41;;;10.36;75.52
52591;BME280;38483;42.620;25.394;2023-10-13T02:04:57;97438.91;;;10.11;77.20
52591;BME280;38483;42.620;25.394;2023-10-13T02:07:29;97440.94;;;10.02;78.14
52591;BME280;38483;42.620;25.394;2023-10-13T02:10:02;97437.41;;;10.27;77.72
52591;BME280;38483;42.620;25.394;2023-10-13T02:12:33;97437.47;;;10.26;77.68
52591;BME280;38483;42.620;25.394;2023-10-13T02:15:04;97440.22;;;10.21;78.51
52591;BME280;38483;42.620;25.394;2023-10-13T02:17:32;97429.88;;;10.43;77.36
52591;BME280;38483;42.620;25.394;2023-10-13T02:20:09;97434.22;;;10.21;78.62
52591;BME280;38483;42.620;25.394;2023-10-13T02:22:42;97433.47;;;10.40;77.49
52591;BME280;38483;42.620;25.394;2023-10-13T02:25:19;97432.38;;;10.46;77.25
52591;BME280;38483;42.620;25.394;2023-10-13T02:28:04;97426.34;;;10.45;77.62
52591;BME280;38483;42.620;25.394;2023-10-13T02:30:39;97423.50;;;10.51;77.33
52591;BME280;38483;42.620;25.394;2023-10-13T02:33:12;97413.41;;;10.45;77.49
52591;BME280;38483;42.620;25.394;2023-10-13T02:35:40;97410.53;;;10.53;76.95
52591;BME280;38483;42.620;25.394;2023-10-13T02:38:17;97419.06;;;10.55;76.76
52591;BME280;38483;42.620;25.394;2023-10-13T02:40:54;97411.97;;;10.38;76.86
52591;BME280;38483;42.620;25.394;2023-10-13T02:43:22;97405.34;;;10.53;76.44
52591;BME280;38483;42.620;25.394;2023-10-13T02:45:53;97392.31;;;10.54;76.63
52591;BME280;38483;42.620;25.394;2023-10-13T02:48:26;97413.53;;;10.42;77.15
52591;BME280;38483;42.620;25.394;2023-10-13T02:50:58;97409.59;;;10.54;77.08
52591;BME280;38483;42.620;25.394;2023-10-13T02:53:29;97400.88;;;10.56;77.09
52591;BME280;38483;42.620;25.394;2023-10-13T02:55:56;97402.56;;;10.36;77.72
52591;BME280;38483;42.620;25.394;2023-10-13T02:58:48;97401.84;;;10.32;77.60
52591;BME280;38483;42.620;25.394;2023-10-13T03:01:20;97413.50;;;10.21;78.93
52591;BME280;38483;42.620;25.394;2023-10-13T03:03:50;97398.75;;;10.00;79.24
52591;BME280;38483;42.620;25.394;2023-10-13T03:06:22;97414.03;;;10.06;78.78
52591;BME280;38483;42.620;25.394;2023-10-13T03:09:10;97413.94;;;10.09;78.74
52591;BME280;38483;42.620;25.394;2023-10-13T03:11:50;97412.25;;;10.08;78.51
52591;BME280;38483;42.620;25.394;2023-10-13T03:14:19;97407.03;;;10.09;78.28
52591;BME280;38483;42.620;25.394;2023-10-13T03:17:02;97402.28;;;10.20;78.14
52591;BME280;38483;42.620;25.394;2023-10-13T03:19:33;97403.28;;;10.39;77.36
52591;BME280;38483;42.620;25.394;2023-10-13T03:22:07;97404.50;;;10.52;77.19
52591;BME280;38483;42.620;25.394;2023-10-13T03:24:40;97401.59;;;10.60;76.79
52591;BME280;38483;42.620;25.394;2023-10-13T03:27:18;97396.06;;;10.69;76.47
52591;BME280;38483;42.620;25.394;2023-10-13T03:29:50;97402.09;;;10.48;76.93
52591;BME280;38483;42.620;25.394;2023-10-13T03:32:27;97400.34;;;10.48;77.26
52591;BME280;38483;42.620;25.394;2023-10-13T03:34:57;97397.63;;;10.51;77.48
52591;BME280;38483;42.620;25.394;2023-10-13T03:37:29;97386.53;;;10.48;76.97
52591;BME280;38483;42.620;25.394;2023-10-13T03:40:07;97390.41;;;10.38;77.58
52591;BME280;38483;42.620;25.394;2023-10-13T03:42:50;97391.06;;;10.43;77.46
52591;BME280;38483;42.620;25.394;2023-10-13T03:45:45;97400.03;;;10.56;77.21
52591;BME280;38483;42.620;25.394;2023-10-13T03:48:16;97408.06;;;10.70;76.43
52591;BME280;38483;42.620;25.394;2023-10-13T03:50:54;97402.69;;;10.54;76.82
52591;BME280;38483;42.620;25.394;2023-10-13T03:53:37;97395.06;;;10.72;75.48
52591;BME280;38483;42.620;25.394;2023-10-13T03:56:27;97395.94;;;10.92;74.86
52591;BME280;38483;42.620;25.394;2023-10-13T03:58:59;97390.31;;;11.03;73.85
52591;BME280;38483;42.620;25.394;2023-10-13T04:01:38;97397.25;;;11.02;73.40
52591;BME280;38483;42.620;25.394;2023-10-13T04:04:24;97390.31;;;11.03;73.23
52591;BME280;38483;42.620;25.394;2023-10-13T04:07:04;97375.72;;;10.80;72.97
52591;BME280;38483;42.620;25.394;2023-10-13T04:09:38;97390.63;;;10.95;72.98
52591;BME280;38483;42.620;25.394;2023-10-13T04:12:14;97394.94;;;10.96;73.06
52591;BME280;38483;42.620;25.394;2023-10-13T04:15:00;97403.66;;;10.94;73.17
52591;BME280;38483;42.620;25.394;2023-10-13T04:17:33;97405.19;;;10.78;72.96
52591;BME280;38483;42.620;25.394;2023-10-13T04:20:13;97403.53;;;10.55;74.14
52591;BME280;38483;42.620;25.394;2023-10-13T04:22:46;97405.44;;;10.50;74.52
52591;BME280;38483;42.620;25.394;2023-10-13T04:25:25;97401.47;;;10.63;74.19
52591;BME280;38483;42.620;25.394;2023-10-13T04:28:09;97402.94;;;10.48;74.22
52591;BME280;38483;42.620;25.394;2023-10-13T04:30:48;97402.50;;;10.59;74.09
52591;BME280;38483;42.620;25.394;2023-10-13T04:33:28;97403.28;;;10.61;74.26
52591;BME280;38483;42.620;25.394;2023-10-13T04:36:09;97404.31;;;10.57;74.15
52591;BME280;38483;42.620;25.394;2023-10-13T04:38:56;97400.16;;;10.53;74.17
52591;BME280;38483;42.620;25.394;2023-10-13T04:44:13;97412.09;;;10.57;74.67
52591;BME280;38483;42.620;25.394;2023-10-13T04:46:50;97400.28;;;10.50;74.94
52591;BME280;38483;42.620;25.394;2023-10-13T04:49:21;97404.19;;;10.38;76.24
52591;BME280;38483;42.620;25.394;2023-10-13T04:51:58;97408.34;;;10.42;76.49
52591;BME280;38483;42.620;25.394;2023-10-13T04:54:27;97405.75;;;10.21;77.12
52591;BME280;38483;42.620;25.394;2023-10-13T04:57:22;97406.97;;;10.34;77.43
52591;BME280;38483;42.620;25.394;2023-10-13T05:00:03;97415.00;;;10.26;77.52
52591;BME280;38483;42.620;25.394;2023-10-13T05:02:40;97405.66;;;10.22;78.07
52591;BME280;38483;42.620;25.394;2023-10-13T05:05:10;97419.13;;;10.32;78.35
52591;BME280;38483;42.620;25.394;2023-10-13T05:07:38;97414.84;;;10.31;78.05
52591;BME280;38483;42.620;25.394;2023-10-13T05:10:23;97419.78;;;10.58;76.85
52591;BME280;38483;42.620;25.394;2023-10-13T05:13:09;97435.06;;;10.64;76.84
52591;BME280;38483;42.620;25.394;2023-10-13T05:15:55;97430.38;;;10.94;76.23
52591;BME280;38483;42.620;25.394;2023-10-13T05:18:41;97435.81;;;11.30;74.41
52591;BME280;38483;42.620;25.394;2023-10-13T05:21:28;97432.13;;;11.56;73.46
52591;BME280;38483;42.620;25.394;2023-10-13T05:24:13;97432.50;;;11.67;73.18
52591;BME280;38483;42.620;25.394;2023-10-13T05:26:59;97442.72;;;11.90;72.35
52591;BME280;38483;42.620;25.394;2023-10-13T05:29:47;97449.66;;;12.08;71.60
52591;BME280;38483;42.620;25.394;2023-10-13T05:32:51;97441.84;;;12.28;71.24
52591;BME280;38483;42.620;25.394;2023-10-13T05:35:37;97442.16;;;12.39;70.69
52591;BME280;38483;42.620;25.394;2023-10-13T05:38:23;97436.00;;;12.42;70.47
52591;BME280;38483;42.620;25.394;2023-10-13T05:41:09;97456.13;;;12.55;69.76
52591;BME280;38483;42.620;25.394;2023-10-13T05:43:55;97460.34;;;12.39;70.92
52591;BME280;38483;42.620;25.394;2023-10-13T05:46:40;97447.09;;;12.26;70.44
52591;BME280;38483;42.620;25.394;2023-10-13T05:49:28;97470.53;;;12.44;70.61
52591;BME280;38483;42.620;25.394;2023-10-13T05:52:22;97460.97;;;12.63;70.29
52591;BME280;38483;42.620;25.394;2023-10-13T05:55:09;97462.09;;;12.57;70.86
52591;BME280;38483;42.620;25.394;2023-10-13T05:57:55;97461.75;;;12.65;70.40
52591;BME280;38483;42.620;25.394;2023-10-13T06:00:41;97462.78;;;12.96;69.27
52591;BME280;38483;42.620;25.394;2023-10-13T06:03:27;97467.00;;;13.35;69.29
52591;BME280;38483;42.620;25.394;2023-10-13T06:06:13;97472.81;;;13.57;67.38
52591;BME280;38483;42.620;25.394;2023-10-13T06:08:58;97475.97;;;13.79;66.50
52591;BME280;38483;42.620;25.394;2023-10-13T06:11:44;97473.94;;;13.68;66.40
52591;BME280;38483;42.620;25.394;2023-10-13T06:14:29;97479.66;;;13.92;66.71
52591;BME280;38483;42.620;25.394;2023-10-13T06:17:15;97488.34;;;14.08;65.83
52591;BME280;38483;42.620;25.394;2023-10-13T06:20:01;97498.09;;;14.20;65.69
52591;BME280;38483;42.620;25.394;2023-10-13T06:22:48;97489.03;;;14.44;64.91
52591;BME280;38483;42.620;25.394;2023-10-13T06:25:34;97494.41;;;14.41;65.13
52591;BME280;38483;42.620;25.394;2023-10-13T06:28:20;97482.88;;;14.45;64.75
52591;BME280;38483;42.620;25.394;2023-10-13T06:31:06;97489.59;;;14.49;64.64
52591;BME280;38483;42.620;25.394;2023-10-13T06:33:33;97490.44;;;14.65;64.68
52591;BME280;38483;42.620;25.394;2023-10-13T06:36:02;97491.50;;;14.63;64.33
52591;BME280;38483;42.620;25.394;2023-10-13T06:38:30;97486.66;;;14.55;64.13
52591;BME280;38483;42.620;25.394;2023-10-13T06:41:04;97486.75;;;14.69;64.51
52591;BME280;38483;42.620;25.394;2023-10-13T06:43:37;97501.13;;;14.92;64.21
52591;BME280;38483;42.620;25.394;2023-10-13T06:46:07;97500.13;;;14.95;64.41
52591;BME280;38483;42.620;25.394;2023-10-13T06:48:41;97471.84;;;15.03;63.89
52591;BME280;38483;42.620;25.394;2023-10-13T06:51:09;97470.59;;;15.10;64.15
52591;BME280;38483;42.620;25.394;2023-10-13T06:53:49;97466.03;;;15.13;63.96
52591;BME280;38483;42.620;25.394;2023-10-13T06:56:18;97465.25;;;15.27;63.37
52591;BME280;38483;42.620;25.394;2023-10-13T06:58:56;97477.16;;;15.46;63.05
52591;BME280;38483;42.620;25.394;2023-10-13T07:01:27;97489.34;;;15.76;62.66
52591;BME280;38483;42.620;25.394;2023-10-13T07:03:54;97484.63;;;15.96;61.95
52591;BME280;38483;42.620;25.394;2023-10-13T07:06:28;97491.34;;;16.14;61.46
52591;BME280;38483;42.620;25.394;2023-10-13T07:08:58;97484.81;;;16.36;60.60
52591;BME280;38483;42.620;25.394;2023-10-13T07:11:30;97490.66;;;16.67;60.48
52591;BME280;38483;42.620;25.394;2023-10-13T07:14:04;97489.75;;;16.68;59.88
52591;BME280;38483;42.620;25.394;2023-10-13T07:16:56;97477.97;;;16.75;59.64
52591;BME280;38483;42.620;25.394;2023-10-13T07:19:27;97496.72;;;16.96;58.53
52591;BME280;38483;42.620;25.394;2023-10-13T07:21:57;97494.63;;;17.01;57.77
52591;BME280;38483;42.620;25.394;2023-10-13T07:24:47;97482.84;;;17.08;57.28
52591;BME280;38483;42.620;25.394;2023-10-13T07:29:54;97488.84;;;17.49;56.89
52591;BME280;38483;42.620;25.394;2023-10-13T07:32:41;97497.25;;;17.67;56.24
52591;BME280;38483;42.620;25.394;2023-10-13T07:36:05;97492.78;;;17.81;55.33
52591;BME280;38483;42.620;25.394;2023-10-13T07:39:24;97488.47;;;17.93;55.04
52591;BME280;38483;42.620;25.394;2023-10-13T07:42:44;97483.53;;;18.14;54.27
52591;BME280;38483;42.620;25.394;2023-10-13T07:46:09;97485.84;;;18.31;53.26
52591;BME280;38483;42.620;25.394;2023-10-13T07:49:11;97492.56;;;18.35;53.77
52591;BME280;38483;42.620;25.394;2023-10-13T07:51:38;97481.84;;;18.63;54.57
52591;BME280;38483;42.620;25.394;2023-10-13T07:54:13;97479.47;;;18.84;53.32
52591;BME280;38483;42.620;25.394;2023-10-13T07:56:48;97478.03;;;19.03;53.56
52591;BME280;38483;42.620;25.394;2023-10-13T07:59:15;97469.00;;;19.07;52.39
52591;BME280;38483;42.620;25.394;2023-10-13T08:01:42;97476.03;;;19.07;51.99
52591;BME280;38483;42.620;25.394;2023-10-13T08:04:10;97475.41;;;19.03;52.26
52591;BME280;38483;42.620;25.394;2023-10-13T08:06:43;97469.66;;;19.22;52.83
52591;BME280;38483;42.620;25.394;2023-10-13T08:09:12;97473.94;;;19.35;52.73
52591;BME280;38483;42.620;25.394;2023-10-13T08:12:07;97475.81;;;19.33;51.87
52591;BME280;38483;42.620;25.394;2023-10-13T08:14:38;97475.81;;;19.33;51.03
52591;BME280;38483;42.620;25.394;2023-10-13T08:17:07;97463.84;;;19.53;50.43
52591;BME280;38483;42.620;25.394;2023-10-13T08:19:36;97480.47;;;19.54;50.81
52591;BME280;38483;42.620;25.394;2023-10-13T08:22:09;97467.34;;;19.54;50.00
52591;BME280;38483;42.620;25.394;2023-10-13T08:24:46;97471.00;;;19.86;50.00
52591;BME280;38483;42.620;25.394;2023-10-13T08:27:16;97385.19;;;19.28;49.52
52591;BME280;38483;42.620;25.394;2023-10-13T08:30:03;97459.28;;;19.90;50.04
52591;BME280;38483;42.620;25.394;2023-10-13T08:33:09;97471.00;;;20.08;50.89
52591;BME280;38483;42.620;25.394;2023-10-13T08:35:45;97468.56;;;20.28;49.79
52591;BME280;38483;42.620;25.394;2023-10-13T08:38:22;97468.19;;;20.33;49.33
52591;BME280;38483;42.620;25.394;2023-10-13T08:40:59;97464.50;;;20.36;49.18
52591;BME280;38483;42.620;25.394;2023-10-13T08:43:46;97471.31;;;20.49;48.05
52591;BME280;38483;42.620;25.394;2023-10-13T08:46:20;97458.03;;;20.62;47.31
52591;BME280;38483;42.620;25.394;2023-10-13T08:48:59;97462.31;;;20.74;49.18
52591;BME280;38483;42.620;25.394;2023-10-13T08:51:45;97456.91;;;20.75;47.18
52591;BME280;38483;42.620;25.394;2023-10-13T08:54:17;97477.13;;;20.86;45.03
52591;BME280;38483;42.620;25.394;2023-10-13T08:57:02;97460.22;;;20.99;44.95
52591;BME280;38483;42.620;25.394;2023-10-13T09:00:00;97459.63;;;20.96;43.57
52591;BME280;38483;42.620;25.394;2023-10-13T09:02:47;97464.25;;;21.15;43.90
52591;BME280;38483;42.620;25.394;2023-10-13T09:05:27;97445.00;;;21.14;43.92
52591;BME280;38483;42.620;25.394;2023-10-13T09:08:29;97448.31;;;21.27;43.53
52591;BME280;38483;42.620;25.394;2023-10-13T09:11:32;97449.28;;;21.26;43.92
52591;BME280;38483;42.620;25.394;2023-10-13T09:14:16;97457.00;;;21.39;43.89
52591;BME280;38483;42.620;25.394;2023-10-13T09:17:07;97451.75;;;21.39;43.34
52591;BME280;38483;42.620;25.394;2023-10-13T09:19:50;97449.88;;;21.50;43.60
52591;BME280;38483;42.620;25.394;2023-10-13T09:22:24;97449.56;;;21.64;42.40
52591;BME280;38483;42.620;25.394;2023-10-13T09:24:58;97452.28;;;21.74;42.68
52591;BME280;38483;42.620;25.394;2023-10-13T09:27:27;97446.31;;;21.72;43.36
52591;BME280;38483;42.620;25.394;2023-10-13T09:30:02;97458.59;;;21.82;42.59
52591;BME280;38483;42.620;25.394;2023-10-13T09:32:45;97461.16;;;22.14;41.30
52591;BME280;38483;42.620;25.394;2023-10-13T09:35:20;97447.00;;;22.15;42.16
52591;BME280;38483;42.620;25.394;2023-10-13T09:37:50;97438.44;;;22.23;41.52
52591;BME280;38483;42.620;25.394;2023-10-13T09:40:18;97447.78;;;22.36;41.05
52591;BME280;38483;42.620;25.394;2023-10-13T09:43:01;97455.09;;;22.23;41.11
52591;BME280;38483;42.620;25.394;2023-10-13T09:45:35;97449.09;;;22.51;41.27
52591;BME280;38483;42.620;25.394;2023-10-13T09:48:21;97444.72;;;22.61;40.27
52591;BME280;38483;42.620;25.394;2023-10-13T09:50:55;97440.84;;;22.65;40.82
52591;BME280;38483;42.620;25.394;2023-10-13T09:53:25;97444.22;;;22.87;40.14
52591;BME280;38483;42.620;25.394;2023-10-13T09:56:42;97434.66;;;23.05;41.05
52591;BME280;38483;42.620;25.394;2023-10-13T09:58:51;97425.34;;;23.01;40.50
52591;BME280;38483;42.620;25.394;2023-10-13T10:01:27;97423.56;;;23.20;40.33
52591;BME280;38483;42.620;25.394;2023-10-13T10:04:13;97423.13;;;23.25;39.81
52591;BME280;38483;42.620;25.394;2023-10-13T10:09:19;97413.72;;;23.51;39.55
52591;BME280;38483;42.620;25.394;2023-10-13T10:17:43;97397.38;;;23.84;39.10
52591;BME280;38483;42.620;25.394;2023-10-13T10:20:12;97402.78;;;23.92;37.95
52591;BME280;38483;42.620;25.394;2023-10-13T10:22:42;97394.56;;;24.05;38.39
52591;BME280;38483;42.620;25.394;2023-10-13T10:25:16;97376.81;;;24.15;37.92
52591;BME280;38483;42.620;25.394;2023-10-13T10:27:58;97389.72;;;24.28;37.13
52591;BME280;38483;42.620;25.394;2023-10-13T10:30:27;97382.69;;;24.09;37.07
52591;BME280;38483;42.620;25.394;2023-10-13T10:32:56;97386.06;;;23.92;36.74
52591;BME280;38483;42.620;25.394;2023-10-13T10:35:28;97384.66;;;24.07;37.13
52591;BME280;38483;42.620;25.394;2023-10-13T10:38:17;97386.94;;;24.19;36.82
52591;BME280;38483;42.620;25.394;2023-10-13T10:41:05;97396.44;;;24.49;35.62
52591;BME280;38483;42.620;25.394;2023-10-13T10:46:17;97394.94;;;24.74;35.39
52591;BME280;38483;42.620;25.394;2023-10-13T10:48:45;97369.66;;;24.79;35.18
52591;BME280;38483;42.620;25.394;2023-10-13T10:51:14;97376.91;;;24.77;35.19
52591;BME280;38483;42.620;25.394;2023-10-13T10:53:49;97374.66;;;24.82;34.93
52591;BME280;38483;42.620;25.394;2023-10-13T10:56:22;97376.09;;;24.94;35.51
52591;BME280;38483;42.620;25.394;2023-10-13T10:58:56;97362.25;;;25.00;34.40
52591;BME280;38483;42.620;25.394;2023-10-13T11:01:25;97367.38;;;25.02;35.11
52591;BME280;38483;42.620;25.394;2023-10-13T11:04:03;97370.66;;;25.14;34.88
52591;BME280;38483;42.620;25.394;2023-10-13T11:06:47;97348.06;;;24.92;34.94
52591;BME280;38483;42.620;25.394;2023-10-13T11:09:15;97362.53;;;24.80;34.92
52591;BME280;38483;42.620;25.394;2023-10-13T11:11:54;97369.13;;;24.76;35.54
52591;BME280;38483;42.620;25.394;2023-10-13T11:14:28;97359.81;;;24.89;34.58
52591;BME280;38483;42.620;25.394;2023-10-13T11:16:57;97358.31;;;25.04;35.43
52591;BME280;38483;42.620;25.394;2023-10-13T11:19:38;97355.59;;;24.96;35.26
52591;BME280;38483;42.620;25.394;2023-10-13T11:22:17;97369.34;;;25.00;34.48
52591;BME280;38483;42.620;25.394;2023-10-13T11:25:00;97363.47;;;24.88;34.93
52591;BME280;38483;42.620;25.394;2023-10-13T11:27:32;97364.75;;;24.84;35.11
52591;BME280;38483;42.620;25.394;2023-10-13T11:30:24;97364.38;;;24.97;35.14
52591;BME280;38483;42.620;25.394;2023-10-13T11:33:09;97356.84;;;25.10;34.50
52591;BME280;38483;42.620;25.394;2023-10-13T11:35:40;97362.47;;;25.07;34.35
52591;BME280;38483;42.620;25.394;2023-10-13T11:38:30;97353.91;;;24.78;35.01
52591;BME280;38483;42.620;25.394;2023-10-13T11:41:21;97374.94;;;24.79;34.54
52591;BME280;38483;42.620;25.394;2023-10-13T11:43:52;97373.13;;;24.80;34.82
52591;BME280;38483;42.620;25.394;2023-10-13T11:46:25;97365.66;;;24.93;34.65
52591;BME280;38483;42.620;25.394;2023-10-13T11:49:13;97372.41;;;25.05;33.36
52591;BME280;38483;42.620;25.394;2023-10-13T11:51:45;97369.75;;;25.05;32.58
52591;BME280;38483;42.620;25.394;2023-10-13T11:54:16;97358.03;;;25.08;31.97
52591;BME280;38483;42.620;25.394;2023-10-13T11:56:46;97377.56;;;25.24;31.91
52591;BME280;38483;42.620;25.394;2023-10-13T11:59:13;97346.34;;;25.18;32.03
52591;BME280;38483;42.620;25.394;2023-10-13T12:01:49;97368.13;;;25.47;32.32
52591;BME280;38483;42.620;25.394;2023-10-13T12:04:38;97368.69;;;25.51;31.55
52591;BME280;38483;42.620;25.394;2023-10-13T12:07:19;97367.97;;;25.66;31.79
52591;BME280;38483;42.620;25.394;2023-10-13T12:10:05;97361.72;;;25.75;31.54
52591;BME280;38483;42.620;25.394;2023-10-13T12:12:33;97358.69;;;25.96;31.32
52591;BME280;38483;42.620;25.394;2023-10-13T12:15:09;97358.91;;;26.03;31.18
52591;BME280;38483;42.620;25.394;2023-10-13T12:17:36;97351.91;;;26.02;31.46
52591;BME280;38483;42.620;25.394;2023-10-13T12:20:07;97360.63;;;26.12;31.14
52591;BME280;38483;42.620;25.394;2023-10-13T12:22:38;97359.03;;;26.19;31.31
52591;BME280;38483;42.620;25.394;2023-10-13T12:25:22;97361.09;;;26.07;31.96
52591;BME280;38483;42.620;25.394;2023-10-13T12:27:53;97365.78;;;25.88;32.13
52591;BME280;38483;42.620;25.394;2023-10-13T12:30:42;97361.72;;;25.75;33.01
52591;BME280;38483;42.620;25.394;2023-10-13T12:33:16;97361.63;;;25.85;33.02
52591;BME280;38483;42.620;25.394;2023-10-13T12:35:58;97359.84;;;25.94;32.93
52591;BME280;38483;42.620;25.394;2023-10-13T12:38:41;97362.63;;;26.10;32.71
52591;BME280;38483;42.620;25.394;2023-10-13T12:41:15;97351.47;;;25.80;33.03
52591;BME280;38483;42.620;25.394;2023-10-13T12:44:06;97375.66;;;25.77;33.17
52591;BME280;38483;42.620;25.394;2023-10-13T12:46:52;97312.13;;;25.33;33.28
52591;BME280;38483;42.620;25.394;2023-10-13T12:49:39;97370.94;;;25.63;33.69
52591;BME280;38483;42.620;25.394;2023-10-13T12:52:12;97362.66;;;25.66;33.49
52591;BME280;38483;42.620;25.394;2023-10-13T12:54:59;97357.75;;;25.54;33.52
52591;BME280;38483;42.620;25.394;2023-10-13T12:57:34;97360.28;;;25.55;34.01
52591;BME280;38483;42.620;25.394;2023-10-13T13:00:01;97344.88;;;25.41;34.48
52591;BME280;38483;42.620;25.394;2023-10-13T13:02:43;97361.91;;;25.56;33.99
52591;BME280;38483;42.620;25.394;2023-10-13T13:05:12;97368.13;;;25.65;34.41
52591;BME280;38483;42.620;25.394;2023-10-13T13:07:40;97366.19;;;25.75;34.15
52591;BME280;38483;42.620;25.394;2023-10-13T13:10:17;97357.56;;;25.73;33.35
52591;BME280;38483;42.620;25.394;2023-10-13T13:12:44;97351.78;;;25.77;33.61
52591;BME280;38483;42.620;25.394;2023-10-13T13:15:11;97344.19;;;25.82;33.52
52591;BME280;38483;42.620;25.394;2023-10-13T13:17:39;97339.50;;;25.76;33.01
52591;BME280;38483;42.620;25.394;2023-10-13T13:20:07;97349.47;;;25.82;33.58
52591;BME280;38483;42.620;25.394;2023-10-13T13:22:38;97358.63;;;25.80;33.07
52591;BME280;38483;42.620;25.394;2023-10-13T13:25:06;97356.72;;;25.72;33.53
52591;BME280;38483;42.620;25.394;2023-10-13T13:27:36;97352.63;;;25.78;33.43
52591;BME280;38483;42.620;25.394;2023-10-13T13:30:04;97362.19;;;25.71;33.84
52591;BME280;38483;42.620;25.394;2023-10-13T13:32:40;97365.06;;;25.77;33.61
52591;BME280;38483;42.620;25.394;2023-10-13T13:35:13;97365.13;;;25.68;34.14
52591;BME280;38483;42.620;25.394;2023-10-13T13:37:45;97353.84;;;25.66;33.43
52591;BME280;38483;42.620;25.394;2023-10-13T13:40:12;97349.34;;;25.58;33.94
52591;BME280;38483;42.620;25.394;2023-10-13T13:42:45;97351.69;;;25.61;34.20
52591;BME280;38483;42.620;25.394;2023-10-13T13:45:16;97353.78;;;25.58;34.38
52591;BME280;38483;42.620;25.394;2023-10-13T13:48:04;97357.06;;;25.69;34.68
52591;BME280;38483;42.620;25.394;2023-10-13T13:50:37;97354.41;;;25.69;34.16
52591;BME280;38483;42.620;25.394;2023-10-13T13:53:27;97357.13;;;25.60;34.53
52591;BME280;38483;42.620;25.394;2023-10-13T13:56:28;97348.41;;;25.67;34.92
52591;BME280;38483;42.620;25.394;2023-10-13T13:58:58;97350.78;;;25.78;34.53